createdAt,value
2022-11-18T00:00:39.838Z,92.52
2022-11-18T00:03:30.618Z,92.62
2022-11-18T00:06:21.633Z,92.08
2022-11-18T00:09:11.138Z,92.44
2022-11-18T00:12:17.502Z,92.50
2022-11-18T00:15:07.928Z,92.45
2022-11-18T00:17:57.201Z,92.54
2022-11-18T00:20:47.806Z,92.81
2022-11-18T00:23:37.428Z,92.87
2022-11-18T00:26:26.956Z,92.50
2022-11-18T00:29:17.159Z,92.56
2022-11-18T00:32:08.113Z,92.33
2022-11-18T00:34:57.397Z,92.31
2022-11-18T00:37:48.394Z,92.34
2022-11-18T00:40:37.643Z,92.99
2022-11-18T00:43:26.023Z,93.02
2022-11-18T00:46:15.607Z,92.94
2022-11-18T00:49:04.969Z,93.35
2022-11-18T00:51:54.332Z,93.31
2022-11-18T00:54:45.083Z,93.18
2022-11-18T00:57:34.473Z,92.97
2022-11-18T01:00:23.836Z,93.11
2022-11-18T01:03:14.211Z,93.03
2022-11-18T01:06:03.617Z,92.95
2022-11-18T01:08:53.189Z,93.01
2022-11-18T01:12:01.428Z,93.44
2022-11-18T01:14:50.658Z,94.07
2022-11-18T01:17:40.041Z,93.56
2022-11-18T01:20:29.298Z,93.60
2022-11-18T01:23:20.687Z,93.74
2022-11-18T01:26:13.567Z,93.89
2022-11-18T01:29:04.617Z,94.07
2022-11-18T01:32:22.832Z,94.52
2022-11-18T01:35:03.262Z,94.17
2022-11-18T01:37:52.543Z,93.74
2022-11-18T01:40:42.669Z,94.19
2022-11-18T01:43:51.617Z,94.18
2022-11-18T01:46:42.264Z,93.73
2022-11-18T01:49:31.535Z,93.97
2022-11-18T01:52:21.876Z,93.88
2022-11-18T01:55:19.564Z,93.50
2022-11-18T01:58:13.811Z,93.70
2022-11-18T02:01:04.751Z,93.80
2022-11-18T02:03:56.134Z,93.81
2022-11-18T02:06:47.434Z,93.78
2022-11-18T02:09:37.930Z,93.37
2022-11-18T02:12:27.720Z,93.45
2022-11-18T02:15:17.796Z,93.53
2022-11-18T02:18:16.470Z,93.34
2022-11-18T02:21:23.734Z,93.42
2022-11-18T02:24:44.755Z,93.67
2022-11-18T02:28:14.172Z,93.38
2022-11-18T02:31:11.876Z,93.42
2022-11-18T02:34:09.152Z,93.36
2022-11-18T02:37:07.682Z,93.37
2022-11-18T02:40:02.136Z,93.27
2022-11-18T02:43:00.228Z,93.05
2022-11-18T02:45:56.167Z,92.65
2022-11-18T02:48:51.084Z,92.34
2022-11-18T02:51:43.170Z,92.44
2022-11-18T02:54:35.601Z,92.12
2022-11-18T02:57:26.782Z,91.90
2022-11-18T03:00:18.135Z,91.84
2022-11-18T03:03:28.275Z,91.53
2022-11-18T03:06:31.611Z,91.69
2022-11-18T03:09:26.261Z,91.48
2022-11-18T03:12:25.754Z,91.47
2022-11-18T03:15:27.445Z,91.33
2022-11-18T03:18:24.658Z,91.29
2022-11-18T03:21:22.180Z,91.24
2022-11-18T03:24:20.078Z,91.14
2022-11-18T03:27:17.796Z,90.80
2022-11-18T03:30:11.684Z,90.65
2022-11-18T03:33:06.512Z,90.34
2022-11-18T03:35:58.794Z,90.62
2022-11-18T03:38:55.560Z,90.22
2022-11-18T03:41:49.852Z,90.38
2022-11-18T03:44:43.617Z,89.70
2022-11-18T03:47:40.518Z,89.67
2022-11-18T03:50:34.033Z,89.83
2022-11-18T03:53:27.265Z,89.70
2022-11-18T03:56:20.055Z,90.07
2022-11-18T03:59:17.541Z,89.67
2022-11-18T04:02:14.607Z,89.32
2022-11-18T04:05:07.776Z,89.25
2022-11-18T04:08:02.834Z,88.99
2022-11-18T04:10:59.740Z,89.30
2022-11-18T04:13:50.525Z,89.08
2022-11-18T04:16:42.868Z,89.00
2022-11-18T04:19:32.257Z,88.80
2022-11-18T04:22:22.040Z,89.03
2022-11-18T04:25:11.446Z,88.69
2022-11-18T04:28:00.862Z,88.44
2022-11-18T04:30:51.781Z,88.50
2022-11-18T04:33:40.994Z,88.12
2022-11-18T04:36:30.311Z,88.14
2022-11-18T04:39:19.943Z,88.01
2022-11-18T04:42:09.350Z,87.75
2022-11-18T04:44:58.726Z,87.37
2022-11-18T04:47:49.420Z,87.66
2022-11-18T04:50:38.649Z,87.49
2022-11-18T04:53:27.931Z,87.72
2022-11-18T04:56:17.202Z,87.82
2022-11-18T04:59:07.285Z,87.92
2022-11-18T05:01:57.934Z,87.71
2022-11-18T05:04:48.625Z,87.98
2022-11-18T05:07:37.961Z,87.96
2022-11-18T05:10:27.320Z,88.04
2022-11-18T05:13:15.670Z,87.65
2022-11-18T05:16:05.173Z,87.61
2022-11-18T05:18:54.808Z,87.97
2022-11-18T05:21:45.794Z,87.48
2022-11-18T05:24:35.166Z,87.28
2022-11-18T05:27:24.439Z,87.11
2022-11-18T05:30:15.573Z,86.99
2022-11-18T05:33:05.005Z,86.91
2022-11-18T05:35:55.368Z,86.92
2022-11-18T05:38:46.652Z,86.81
2022-11-18T05:42:01.289Z,86.46
2022-11-18T05:44:57.457Z,86.47
2022-11-18T05:48:04.527Z,86.21
2022-11-18T05:50:56.172Z,86.51
2022-11-18T05:53:47.325Z,86.49
2022-11-18T05:56:39.753Z,86.38
2022-11-18T05:59:29.039Z,86.44
2022-11-18T06:02:23.384Z,86.19
2022-11-18T06:05:13.876Z,86.01
2022-11-18T06:08:03.506Z,86.16
2022-11-18T06:10:54.556Z,86.25
2022-11-18T06:13:50.606Z,86.29
2022-11-18T06:16:45.457Z,86.04
2022-11-18T06:19:35.635Z,85.87
2022-11-18T06:22:25.034Z,85.36
2022-11-18T06:25:14.514Z,85.63
2022-11-18T06:28:05.811Z,85.30
2022-11-18T06:30:55.111Z,84.91
2022-11-18T06:33:44.505Z,84.75
2022-11-18T06:36:33.788Z,84.89
2022-11-18T06:39:23.285Z,84.66
2022-11-18T06:42:32.652Z,84.27
2022-11-18T06:45:23.540Z,84.35
2022-11-18T06:48:12.983Z,84.40
2022-11-18T06:51:02.282Z,84.45
2022-11-18T06:53:52.096Z,84.59
2022-11-18T06:56:41.471Z,84.38
2022-11-18T06:59:30.763Z,84.39
2022-11-18T07:02:21.415Z,84.36
2022-11-18T07:05:11.258Z,84.61
2022-11-18T07:08:00.654Z,83.74
2022-11-18T07:10:54.383Z,83.95
2022-11-18T07:13:44.187Z,83.98
2022-11-18T07:16:36.536Z,83.52
2022-11-18T07:19:31.416Z,83.81
2022-11-18T07:22:24.912Z,83.50
2022-11-18T07:25:14.751Z,83.58
2022-11-18T07:28:04.111Z,83.52
2022-11-18T07:30:53.770Z,83.45
2022-11-18T07:33:44.616Z,83.44
2022-11-18T07:36:36.056Z,83.86
2022-11-18T07:39:25.767Z,83.44
2022-11-18T07:42:15.074Z,83.71
2022-11-18T07:45:04.724Z,83.64
2022-11-18T07:47:54.118Z,83.56
2022-11-18T07:50:47.139Z,83.02
2022-11-18T07:53:38.902Z,83.33
2022-11-18T07:56:28.766Z,83.09
2022-11-18T07:59:18.308Z,82.92
2022-11-18T08:02:07.957Z,82.59
2022-11-18T08:04:57.290Z,83.02
2022-11-18T08:07:46.717Z,82.70
2022-11-18T08:10:37.513Z,82.60
2022-11-18T08:13:28.056Z,82.55
2022-11-18T08:16:19.189Z,82.52
2022-11-18T08:19:08.486Z,82.07
2022-11-18T08:21:57.842Z,82.26
2022-11-18T08:24:47.377Z,81.88
2022-11-18T08:27:38.044Z,82.09
2022-11-18T08:30:27.390Z,81.42
2022-11-18T08:33:16.679Z,81.11
2022-11-18T08:36:09.497Z,80.96
2022-11-18T08:38:59.981Z,80.66
2022-11-18T08:41:49.292Z,80.79
2022-11-18T08:44:39.961Z,80.88
2022-11-18T08:47:29.271Z,80.26
2022-11-18T08:50:18.944Z,80.53
2022-11-18T08:53:08.255Z,79.96
2022-11-18T08:55:58.505Z,80.05
2022-11-18T08:58:47.994Z,79.69
2022-11-18T09:01:42.031Z,79.23
2022-11-18T09:04:31.492Z,79.34
2022-11-18T09:07:22.553Z,78.84
2022-11-18T09:10:11.882Z,79.46
2022-11-18T09:13:18.498Z,79.18
2022-11-18T09:16:11.048Z,78.67
2022-11-18T09:19:18.586Z,78.71
2022-11-18T09:22:11.957Z,78.43
2022-11-18T09:25:01.733Z,78.27
2022-11-18T09:27:52.856Z,78.07
2022-11-18T09:30:42.548Z,77.61
2022-11-18T09:33:32.136Z,77.74
2022-11-18T09:36:25.371Z,77.47
2022-11-18T09:39:15.042Z,77.59
2022-11-18T09:42:22.366Z,77.22
2022-11-18T09:45:25.416Z,76.88
2022-11-18T09:48:20.031Z,76.71
2022-11-18T09:51:12.768Z,76.64
2022-11-18T09:54:03.627Z,76.23
2022-11-18T09:56:56.523Z,76.17
2022-11-18T09:59:46.976Z,75.85
2022-11-18T10:02:50.119Z,75.62
2022-11-18T10:05:49.611Z,75.56
2022-11-18T10:08:46.569Z,75.34
2022-11-18T10:11:50.504Z,75.32
2022-11-18T10:15:09.482Z,75.14
2022-11-18T10:18:26.469Z,75.04
2022-11-18T10:21:39.233Z,75.31
2022-11-18T10:24:34.781Z,74.81
2022-11-18T10:27:35.728Z,74.94
2022-11-18T10:30:27.882Z,74.98
2022-11-18T10:33:27.814Z,74.72
2022-11-18T10:36:34.279Z,74.65
2022-11-18T10:39:23.642Z,74.38
2022-11-18T10:42:28.645Z,74.34
2022-11-18T10:45:27.894Z,73.42
2022-11-18T10:48:20.274Z,73.04
2022-11-18T10:51:24.078Z,73.12
2022-11-18T10:54:18.285Z,72.84
2022-11-18T10:57:15.915Z,72.67
2022-11-18T11:00:28.601Z,72.85
2022-11-18T11:03:33.205Z,72.18
2022-11-18T11:06:37.600Z,71.84
2022-11-18T11:09:32.580Z,71.44
2022-11-18T11:12:22.173Z,71.42
2022-11-18T11:15:18.609Z,71.17
2022-11-18T11:18:31.049Z,71.37
2022-11-18T11:21:25.292Z,69.32
2022-11-18T11:24:15.332Z,67.54
2022-11-18T11:30:47.447Z,58.94
2022-11-18T11:33:46.959Z,59.13
2022-11-18T11:36:48.573Z,53.76
2022-11-18T11:40:03.618Z,52.07
2022-11-18T11:43:11.595Z,52.88
2022-11-18T11:46:30.339Z,50.74
2022-11-18T11:49:24.627Z,50.74
2022-11-18T11:52:24.338Z,47.86
2022-11-18T11:55:28.417Z,49.00
2022-11-18T11:58:39.149Z,48.67
2022-11-18T12:01:43.384Z,47.49
2022-11-18T12:04:43.697Z,47.72
2022-11-18T12:07:43.857Z,48.29
2022-11-18T12:10:46.388Z,48.92
2022-11-18T12:13:44.806Z,48.85
2022-11-18T12:16:44.765Z,50.21
2022-11-18T12:19:38.695Z,51.60
2022-11-18T12:23:16.921Z,51.82
2022-11-18T12:26:11.288Z,52.61
2022-11-18T12:29:25.796Z,52.63
2022-11-18T12:32:42.407Z,52.99
2022-11-18T12:35:38.037Z,52.83
2022-11-18T12:38:33.585Z,52.50
2022-11-18T12:42:11.932Z,52.12
2022-11-18T12:45:53.911Z,51.50
2022-11-18T12:48:44.834Z,51.93
2022-11-18T12:51:43.632Z,51.99
2022-11-18T12:54:36.635Z,52.44
2022-11-18T12:57:30.295Z,52.56
2022-11-18T13:00:52.268Z,52.63
2022-11-18T13:03:43.401Z,52.71
2022-11-18T13:06:34.850Z,52.92
2022-11-18T13:09:27.440Z,52.62
2022-11-18T13:12:20.173Z,52.33
2022-11-18T13:15:31.893Z,51.74
2022-11-18T13:18:22.728Z,52.00
2022-11-18T13:21:39.076Z,52.55
2022-11-18T13:24:28.444Z,53.76
2022-11-18T13:27:35.615Z,54.76
2022-11-18T13:30:25.278Z,55.07
2022-11-18T13:33:14.821Z,56.99
2022-11-18T13:36:04.445Z,57.33
2022-11-18T13:39:00.023Z,57.78
2022-11-18T13:41:59.724Z,58.48
2022-11-18T13:44:55.337Z,58.85
2022-11-18T13:47:51.929Z,59.21
2022-11-18T13:50:46.824Z,59.84
2022-11-18T13:53:38.626Z,60.16
2022-11-18T13:56:35.164Z,60.08
2022-11-18T13:59:26.278Z,60.08
2022-11-18T14:02:17.575Z,60.55
2022-11-18T14:05:08.263Z,60.63
2022-11-18T14:08:03.674Z,60.50
2022-11-18T14:10:52.987Z,61.01
2022-11-18T14:13:55.114Z,60.88
2022-11-18T14:16:44.771Z,60.57
2022-11-18T14:19:42.468Z,60.41
2022-11-18T14:22:32.675Z,60.11
2022-11-18T14:25:28.523Z,60.17
2022-11-18T14:28:25.408Z,60.39
2022-11-18T14:31:27.249Z,60.66
2022-11-18T14:34:25.166Z,60.32
2022-11-18T14:37:17.249Z,61.06
2022-11-18T14:40:14.529Z,60.73
2022-11-18T14:43:03.962Z,60.67
2022-11-18T14:45:56.796Z,60.70
2022-11-18T14:48:48.187Z,60.96
2022-11-18T14:51:37.746Z,61.36
2022-11-18T14:54:28.462Z,61.14
2022-11-18T14:57:19.240Z,61.10
2022-11-18T15:00:14.376Z,61.60
2022-11-18T15:03:03.825Z,61.56
2022-11-18T15:05:54.689Z,61.48
2022-11-18T15:08:44.795Z,61.41
2022-11-18T15:11:34.017Z,61.87
2022-11-18T15:14:23.474Z,61.77
2022-11-18T15:17:15.005Z,62.07
2022-11-18T15:20:07.093Z,62.08
2022-11-18T15:22:57.919Z,62.21
2022-11-18T15:25:47.366Z,62.47
2022-11-18T15:28:36.972Z,62.74
2022-11-18T15:31:26.889Z,62.87
2022-11-18T15:34:18.261Z,62.97
2022-11-18T15:37:07.538Z,63.79
2022-11-18T15:39:58.300Z,63.42
2022-11-18T15:42:52.015Z,64.54
2022-11-18T15:45:41.752Z,64.91
2022-11-18T15:48:31.015Z,64.72
2022-11-18T15:51:21.207Z,65.12
2022-11-18T15:54:10.832Z,65.66
2022-11-18T15:57:01.509Z,65.87
2022-11-18T15:59:50.928Z,66.04
2022-11-18T16:02:40.228Z,66.49
2022-11-18T16:05:29.653Z,66.62
2022-11-18T16:08:18.970Z,66.92
2022-11-18T16:11:25.914Z,66.98
2022-11-18T16:14:20.048Z,67.36
2022-11-18T16:17:09.530Z,67.26
2022-11-18T16:19:58.866Z,67.82
2022-11-18T16:22:48.581Z,67.71
2022-11-18T16:25:37.924Z,67.72
2022-11-18T16:28:28.603Z,67.97
2022-11-18T16:31:36.634Z,68.16
2022-11-18T16:34:28.312Z,68.52
2022-11-18T16:37:17.629Z,68.25
2022-11-18T16:40:08.599Z,68.31
2022-11-18T16:42:58.052Z,68.51
2022-11-18T16:45:52.917Z,68.49
2022-11-18T16:48:43.783Z,68.57
2022-11-18T16:51:34.959Z,69.07
2022-11-18T16:54:26.693Z,69.17
2022-11-18T16:57:16.322Z,69.18
2022-11-18T17:00:07.229Z,69.37
2022-11-18T17:02:56.610Z,69.22
2022-11-18T17:05:47.290Z,69.28
2022-11-18T17:08:37.760Z,69.14
2022-11-18T17:11:27.392Z,69.12
2022-11-18T17:14:16.994Z,69.31
2022-11-18T17:17:06.385Z,69.22
2022-11-18T17:19:55.812Z,69.71
2022-11-18T17:22:46.554Z,70.18
2022-11-18T17:25:36.095Z,70.99
2022-11-18T17:28:25.492Z,70.63
2022-11-18T17:31:16.961Z,71.03
2022-11-18T17:34:06.652Z,71.47
2022-11-18T17:36:57.452Z,71.73
2022-11-18T17:39:51.053Z,71.81
2022-11-18T17:42:40.336Z,71.77
2022-11-18T17:45:29.788Z,71.89
2022-11-18T17:48:19.187Z,72.32
2022-11-18T17:51:08.603Z,71.86
2022-11-18T17:53:58.310Z,72.22
2022-11-18T17:56:50.017Z,72.08
2022-11-18T17:59:39.414Z,72.01
2022-11-18T18:02:29.030Z,71.76
2022-11-18T18:05:18.540Z,72.21
2022-11-18T18:08:10.052Z,71.92
2022-11-18T18:11:02.885Z,72.08
2022-11-18T18:14:10.967Z,72.20
2022-11-18T18:17:00.781Z,72.18
2022-11-18T18:19:50.080Z,72.16
2022-11-18T18:22:39.373Z,72.45
2022-11-18T18:25:28.749Z,72.67
2022-11-18T18:28:17.982Z,72.25
2022-11-18T18:31:10.971Z,72.63
2022-11-18T18:34:00.231Z,72.81
2022-11-18T18:36:49.536Z,72.86
2022-11-18T18:39:39.056Z,73.03
2022-11-18T18:42:28.920Z,73.59
2022-11-18T18:45:35.940Z,73.74
2022-11-18T18:48:26.734Z,74.29
2022-11-18T18:51:17.120Z,74.61
2022-11-18T18:54:07.462Z,74.63
2022-11-18T18:56:56.753Z,75.11
2022-11-18T18:59:46.067Z,74.52
2022-11-18T19:02:35.382Z,75.13
2022-11-18T19:05:46.166Z,74.93
2022-11-18T19:08:35.789Z,74.95
2022-11-18T19:11:43.088Z,75.32
2022-11-18T19:14:34.301Z,75.35
2022-11-18T19:17:23.708Z,75.58
2022-11-18T19:20:32.002Z,75.67
2022-11-18T19:23:22.676Z,75.47
2022-11-18T19:26:11.885Z,75.84
2022-11-18T19:29:01.583Z,75.99
2022-11-18T19:31:50.915Z,75.72
2022-11-18T19:34:40.245Z,75.53
2022-11-18T19:37:29.580Z,75.68
2022-11-18T19:40:21.083Z,75.69
2022-11-18T19:43:10.543Z,75.79
2022-11-18T19:46:00.171Z,75.42
2022-11-18T19:48:51.227Z,75.38
2022-11-18T19:51:40.519Z,75.64
2022-11-18T19:54:30.043Z,75.64
2022-11-18T19:57:20.907Z,75.37
2022-11-18T20:00:12.255Z,75.64
2022-11-18T20:03:02.809Z,76.09
2022-11-18T20:05:55.097Z,75.94
2022-11-18T20:08:46.120Z,76.13
2022-11-18T20:11:36.502Z,76.27
2022-11-18T20:14:27.358Z,76.13
2022-11-18T20:17:16.649Z,76.28
2022-11-18T20:20:07.191Z,76.40
2022-11-18T20:22:56.693Z,76.43
2022-11-18T20:25:46.256Z,76.14
2022-11-18T20:28:37.377Z,76.51
2022-11-18T20:31:29.057Z,76.30
2022-11-18T20:34:18.281Z,76.57
2022-11-18T20:37:07.704Z,76.11
2022-11-18T20:39:57.155Z,76.39
2022-11-18T20:43:03.853Z,76.29
2022-11-18T20:45:56.146Z,76.62
2022-11-18T20:48:47.263Z,76.23
2022-11-18T20:51:36.890Z,76.26
2022-11-18T20:54:26.272Z,76.08
2022-11-18T20:57:15.639Z,76.94
2022-11-18T21:00:06.019Z,77.38
2022-11-18T21:02:56.502Z,76.96
2022-11-18T21:05:47.256Z,77.33
2022-11-18T21:08:36.744Z,77.24
2022-11-18T21:11:26.819Z,77.32
2022-11-18T21:14:23.975Z,77.51
2022-11-18T21:17:13.893Z,77.11
2022-11-18T21:20:23.237Z,76.57
2022-11-18T21:23:14.697Z,77.40
2022-11-18T21:26:07.074Z,76.96
2022-11-18T21:29:02.629Z,77.14
2022-11-18T21:31:52.537Z,76.81
2022-11-18T21:34:42.195Z,76.83
2022-11-18T21:37:33.672Z,76.74
2022-11-18T21:40:24.321Z,76.43
2022-11-18T21:43:13.674Z,76.66
2022-11-18T21:46:03.680Z,76.57
2022-11-18T21:48:57.116Z,76.52
2022-11-18T21:51:49.297Z,76.70
2022-11-18T21:54:38.549Z,76.42
2022-11-18T21:57:29.526Z,76.63
2022-11-18T22:00:19.704Z,76.86
2022-11-18T22:03:10.343Z,76.94
2022-11-18T22:06:01.294Z,77.05
2022-11-18T22:08:50.657Z,76.93
2022-11-18T22:11:39.960Z,77.45
2022-11-18T22:14:30.638Z,77.08
2022-11-18T22:17:19.997Z,77.51
2022-11-18T22:20:12.682Z,77.28
2022-11-18T22:23:03.303Z,77.04
2022-11-18T22:25:58.266Z,76.76
2022-11-18T22:28:48.786Z,76.73
2022-11-18T22:31:39.546Z,76.99
2022-11-18T22:34:29.506Z,77.06
2022-11-18T22:37:18.807Z,77.28
2022-11-18T22:40:10.060Z,77.28
2022-11-18T22:42:59.335Z,76.84
2022-11-18T22:45:49.050Z,77.33
2022-11-18T22:48:39.711Z,77.38
2022-11-18T22:51:29.172Z,77.17
2022-11-18T22:57:27.765Z,77.34
2022-11-18T23:00:18.761Z,77.20
2022-11-18T23:03:08.044Z,77.45
2022-11-18T23:05:58.987Z,77.57
2022-11-18T23:08:48.381Z,77.52
2022-11-18T23:11:55.475Z,78.00
2022-11-18T23:14:45.156Z,77.90
2022-11-18T23:17:34.448Z,77.59
2022-11-18T23:20:23.919Z,77.26
2022-11-18T23:23:14.591Z,77.90
2022-11-18T23:26:09.389Z,77.65
2022-11-18T23:28:58.756Z,78.07
2022-11-18T23:31:48.295Z,77.53
2022-11-18T23:34:37.609Z,77.64
2022-11-18T23:37:27.187Z,78.27
2022-11-18T23:40:18.355Z,77.46
2022-11-18T23:43:07.645Z,77.71
2022-11-18T23:45:58.449Z,78.67
2022-11-18T23:48:48.384Z,78.99
2022-11-18T23:51:37.759Z,79.06
2022-11-18T23:54:27.065Z,78.71
2022-11-18T23:57:17.746Z,78.82
